Time;durP1;ratioP1;P1;durP2;ratioP2;P2;SDS_P1;SDS_P2;PMS_P1;PMS_P2;Temp;Humidity;BMP_temperature;BMP_pressure;BME280_temperature;BME280_humidity;BME280_pressure;Samples;Min_cycle;Max_cycle;Signal;HPM_P1;HPM_P2
2022/05/11 00:01:43;;;;;;;10.93;5.25;;;8.70;94.10;;;;;;5033891;28;20471;-73
2022/05/11 00:04:10;;;;;;;5.45;4.95;;;8.70;94.30;;;;;;5033121;28;20447;-73
2022/05/11 00:06:37;;;;;;;10.07;5.32;;;8.60;94.80;;;;;;5033769;28;20022;-78
2022/05/11 00:09:04;;;;;;;8.32;5.35;;;8.60;95.90;;;;;;5015939;28;20483;-73
2022/05/11 00:11:30;;;;;;;8.98;6.03;;;8.50;95.10;;;;;;5033727;28;20028;-79
2022/05/11 00:13:57;;;;;;;11.50;5.25;;;8.50;95.70;;;;;;5015901;28;20040;-73
2022/05/11 00:16:24;;;;;;;9.52;5.35;;;8.40;96.10;;;;;;5033381;28;20048;-74
2022/05/11 00:18:49;;;;;;;8.85;5.93;;;8.40;96.80;;;;;;5009574;28;20047;-73
2022/05/11 00:21:15;;;;;;;8.57;6.28;;;8.40;97.00;;;;;;5003715;28;20445;-78
2022/05/11 00:23:41;;;;;;;8.85;5.78;;;8.30;97.10;;;;;;5032282;28;20017;-72
2022/05/11 00:26:06;;;;;;;11.98;6.05;;;8.30;98.30;;;;;;5033316;28;20054;-73
2022/05/11 00:28:32;;;;;;;9.02;6.45;;;8.20;98.70;;;;;;5033417;28;20033;-72
2022/05/11 00:30:58;;;;;;;8.65;6.20;;;8.20;99.80;;;;;;5033255;28;20087;-78
2022/05/11 00:33:23;;;;;;;11.88;6.45;;;8.10;99.40;;;;;;5015473;28;20548;-72
2022/05/11 00:35:51;;;;;;;13.10;7.00;;;8.10;99.90;;;;;;5015395;28;20491;-72
2022/05/11 00:38:19;;;;;;;9.68;7.35;;;8.00;99.90;;;;;;5015627;28;20104;-72
2022/05/11 00:40:48;;;;;;;11.05;6.82;;;8.00;99.90;;;;;;5033295;28;20432;-72
2022/05/11 00:43:24;;;;;;;10.57;6.75;;;8.00;99.90;;;;;;5033147;28;20044;-72
2022/05/11 00:45:50;;;;;;;9.57;6.35;;;8.00;99.90;;;;;;5033041;28;20018;-79
2022/05/11 00:51:11;;;;;;;12.85;5.45;;;8.00;99.90;;;;;;5033195;28;20060;-72
2022/05/11 00:53:40;;;;;;;9.23;5.80;;;7.90;99.90;;;;;;5032759;28;20025;-72
2022/05/11 00:56:06;;;;;;;9.27;5.53;;;7.90;99.90;;;;;;5015191;28;20033;-78
2022/05/11 00:58:41;;;;;;;7.57;5.18;;;7.90;99.90;;;;;;5033073;28;20486;-78
2022/05/11 01:01:08;;;;;;;7.90;5.55;;;7.90;99.90;;;;;;5033288;28;20079;-78
2022/05/11 01:03:39;;;;;;;7.38;5.55;;;7.90;99.90;;;;;;5032976;28;20083;-72
2022/05/11 01:06:08;;;;;;;8.25;5.45;;;7.90;99.90;;;;;;5032899;28;20026;-78
2022/05/11 01:08:33;;;;;;;8.43;5.75;;;7.90;99.90;;;;;;5033035;28;20033;-79
2022/05/11 01:11:04;;;;;;;10.82;6.20;;;7.90;99.90;;;;;;5032941;28;20036;-73
2022/05/11 01:13:32;;;;;;;7.65;5.93;;;7.80;99.90;;;;;;5032773;28;20026;-72
2022/05/11 01:15:59;;;;;;;13.57;6.57;;;7.80;99.90;;;;;;5016722;28;20059;-72
2022/05/11 01:18:29;;;;;;;12.35;6.53;;;7.80;99.90;;;;;;5037156;28;20077;-72
2022/05/11 01:20:55;;;;;;;8.45;5.93;;;7.70;99.90;;;;;;5036895;28;20024;-72
2022/05/11 01:23:38;;;;;;;7.22;5.50;;;7.70;99.90;;;;;;5036736;28;20021;-72
2022/05/11 01:26:04;;;;;;;9.73;5.85;;;7.70;99.90;;;;;;5018967;28;20025;-78
2022/05/11 01:28:31;;;;;;;7.30;5.88;;;7.70;99.90;;;;;;5036724;28;20021;-78
2022/05/11 01:31:06;;;;;;;8.60;5.13;;;7.70;99.90;;;;;;5036671;28;20017;-73
2022/05/11 01:33:34;;;;;;;7.70;5.85;;;7.70;99.90;;;;;;5036617;28;20426;-78
2022/05/11 01:36:18;;;;;;;9.88;6.05;;;7.70;99.90;;;;;;5036443;28;20034;-72
2022/05/11 01:38:50;;;;;;;7.80;5.88;;;7.70;99.90;;;;;;5018818;28;20521;-72
2022/05/11 01:41:23;;;;;;;8.77;5.82;;;7.60;99.90;;;;;;5018707;28;20499;-72
2022/05/11 01:43:50;;;;;;;9.73;5.78;;;7.60;99.90;;;;;;5036367;28;20075;-72
2022/05/11 01:46:17;;;;;;;8.07;5.45;;;7.60;99.90;;;;;;5036337;28;20393;-78
2022/05/11 01:48:43;;;;;;;10.45;6.40;;;7.50;99.90;;;;;;5036456;28;20064;-72
2022/05/11 01:51:10;;;;;;;8.38;5.95;;;7.50;99.90;;;;;;5018576;28;20052;-72
2022/05/11 01:53:36;;;;;;;9.45;5.97;;;7.50;99.90;;;;;;5035997;28;20025;-71
2022/05/11 01:56:02;;;;;;;6.68;5.70;;;7.40;99.90;;;;;;5036192;28;20040;-72
2022/05/11 01:58:27;;;;;;;6.97;5.80;;;7.40;99.90;;;;;;5036304;28;20049;-78
2022/05/11 02:00:53;;;;;;;10.02;6.60;;;7.30;99.90;;;;;;5018308;28;20080;-77
2022/05/11 02:03:20;;;;;;;9.48;5.72;;;7.30;99.90;;;;;;5035976;28;20030;-72
2022/05/11 02:08:43;;;;;;;8.52;6.45;;;7.20;99.90;;;;;;5020391;28;20076;-78
2022/05/11 02:11:09;;;;;;;8.40;6.00;;;7.20;99.90;;;;;;5018213;28;20116;-77
2022/05/11 02:13:35;;;;;;;8.02;5.85;;;7.20;99.90;;;;;;5035770;28;20098;-78
2022/05/11 02:16:01;;;;;;;7.20;5.80;;;7.20;99.90;;;;;;5035741;28;20132;-71
2022/05/11 02:18:27;;;;;;;10.50;6.13;;;7.20;99.90;;;;;;5018051;28;20029;-78
2022/05/11 02:20:53;;;;;;;10.57;5.10;;;7.10;99.90;;;;;;5035805;28;20040;-78
2022/05/11 02:23:20;;;;;;;7.88;5.88;;;7.10;99.90;;;;;;5035802;28;20025;-78
2022/05/11 02:25:47;;;;;;;7.75;5.95;;;7.20;99.90;;;;;;5017917;28;20176;-78
2022/05/11 02:28:14;;;;;;;7.22;5.82;;;7.20;99.90;;;;;;5035609;28;20032;-79
2022/05/11 02:30:42;;;;;;;10.30;5.55;;;7.30;99.90;;;;;;5017818;28;20022;-71
2022/05/11 02:33:07;;;;;;;10.48;6.20;;;7.30;99.90;;;;;;5035676;28;20471;-78
2022/05/11 02:35:34;;;;;;;8.55;6.82;;;7.30;99.90;;;;;;5035582;28;20080;-72
2022/05/11 02:38:08;;;;;;;9.65;5.53;;;7.30;99.90;;;;;;5017900;28;20021;-72
2022/05/11 02:40:38;;;;;;;10.27;6.60;;;7.30;99.90;;;;;;5035913;28;20021;-78
2022/05/11 02:43:04;;;;;;;13.60;6.43;;;7.30;99.90;;;;;;5035389;28;20450;-78
2022/05/11 02:45:32;;;;;;;9.68;6.45;;;7.40;99.90;;;;;;5035552;28;20034;-78
2022/05/11 02:47:59;;;;;;;9.38;6.85;;;7.40;99.90;;;;;;5035399;28;20031;-79
2022/05/11 02:50:27;;;;;;;13.48;7.70;;;7.40;99.90;;;;;;5035517;28;20017;-78
2022/05/11 02:52:53;;;;;;;10.52;6.75;;;7.40;99.90;;;;;;5017416;28;20038;-71
2022/05/11 02:55:19;;;;;;;10.98;6.88;;;7.30;99.90;;;;;;5035274;28;20088;-78
2022/05/11 02:57:45;;;;;;;10.13;7.10;;;7.30;99.90;;;;;;5035225;28;20032;-71
2022/05/11 03:00:14;;;;;;;8.40;6.47;;;7.30;99.90;;;;;;5035339;28;20072;-78
2022/05/11 03:02:39;;;;;;;20.02;8.90;;;7.20;99.90;;;;;;5035095;28;20021;-78
2022/05/11 03:05:05;;;;;;;11.23;7.40;;;7.30;99.90;;;;;;5035240;28;20025;-72
2022/05/11 03:07:31;;;;;;;12.52;7.30;;;7.20;99.90;;;;;;5034920;28;20399;-72
2022/05/11 03:09:57;;;;;;;12.68;7.13;;;7.30;99.90;;;;;;5035194;28;20025;-78
2022/05/11 03:12:23;;;;;;;10.10;8.20;;;7.30;99.90;;;;;;5035010;28;20537;-71
2022/05/11 03:14:50;;;;;;;9.30;7.15;;;7.40;99.90;;;;;;5035076;28;20022;-78
2022/05/11 03:17:17;;;;;;;11.73;8.02;;;7.40;99.90;;;;;;5034613;28;20049;-72
2022/05/11 03:19:42;;;;;;;10.38;6.85;;;7.50;99.90;;;;;;5034970;28;20026;-72
2022/05/11 03:22:09;;;;;;;10.57;7.20;;;7.50;99.90;;;;;;5034894;28;20040;-78
2022/05/11 03:24:35;;;;;;;11.30;6.90;;;7.50;99.90;;;;;;5017230;28;20116;-78
2022/05/11 03:27:01;;;;;;;9.93;6.97;;;7.50;99.90;;;;;;5016912;28;20105;-72
2022/05/11 03:29:26;;;;;;;9.23;7.28;;;7.60;99.90;;;;;;5034544;28;20033;-72
2022/05/11 03:34:37;;;;;;;10.85;7.78;;;7.70;99.90;;;;;;5034681;28;20052;-72
2022/05/11 03:37:04;;;;;;;9.75;6.93;;;7.70;99.90;;;;;;5034520;28;20021;-78
2022/05/11 03:39:30;;;;;;;9.07;7.25;;;7.80;99.90;;;;;;5033705;28;20045;-78
2022/05/11 03:41:55;;;;;;;12.23;7.82;;;7.80;99.90;;;;;;5034315;28;20479;-78
2022/05/11 03:44:21;;;;;;;11.75;7.47;;;7.90;99.90;;;;;;5034412;28;20432;-71
2022/05/11 03:46:46;;;;;;;11.48;6.88;;;8.00;99.90;;;;;;5034381;28;20026;-74
2022/05/11 03:49:12;;;;;;;10.10;6.88;;;8.10;99.90;;;;;;5016738;28;20127;-78
2022/05/11 03:51:37;;;;;;;9.55;6.75;;;8.20;99.90;;;;;;5016638;28;20025;-78
2022/05/11 03:54:03;;;;;;;11.23;6.07;;;8.30;99.90;;;;;;5034255;28;20021;-78
2022/05/11 03:56:29;;;;;;;10.73;6.90;;;8.50;99.90;;;;;;5034110;28;20483;-78
2022/05/11 03:58:56;;;;;;;9.90;6.85;;;8.60;99.90;;;;;;5034094;28;20104;-78
2022/05/11 04:01:22;;;;;;;10.52;6.93;;;8.70;99.90;;;;;;5016478;28;20048;-78
2022/05/11 04:03:47;;;;;;;9.45;6.20;;;8.80;99.90;;;;;;5033960;28;20025;-72
2022/05/11 04:06:13;;;;;;;9.85;6.40;;;8.90;99.90;;;;;;5034008;28;20018;-73
2022/05/11 04:08:39;;;;;;;13.88;6.97;;;9.00;99.90;;;;;;5033979;28;20029;-77
2022/05/11 04:11:05;;;;;;;10.00;6.70;;;9.10;99.90;;;;;;5016247;28;20021;-78
2022/05/11 04:13:30;;;;;;;13.50;6.55;;;9.20;99.90;;;;;;5016210;28;20029;-72
2022/05/11 04:15:56;;;;;;;8.93;6.28;;;9.30;99.90;;;;;;5033631;28;20422;-72
2022/05/11 04:18:22;;;;;;;14.68;6.90;;;9.40;99.90;;;;;;5033606;28;20022;-78
2022/05/11 04:20:48;;;;;;;8.32;6.60;;;9.50;99.90;;;;;;5016120;28;20422;-78
2022/05/11 04:23:14;;;;;;;13.93;6.60;;;9.50;99.90;;;;;;5033699;28;20101;-78
2022/05/11 04:25:39;;;;;;;10.95;7.45;;;9.60;99.90;;;;;;5033780;28;20040;-73
2022/05/11 04:28:11;;;;;;;10.50;6.80;;;9.70;99.90;;;;;;5033688;28;20021;-73
2022/05/11 04:30:37;;;;;;;9.95;7.53;;;9.70;99.90;;;;;;5015992;28;20053;-73
2022/05/11 04:33:03;;;;;;;11.63;7.13;;;9.80;99.90;;;;;;5033583;28;20394;-73
2022/05/11 04:35:30;;;;;;;10.05;6.93;;;9.90;99.90;;;;;;5015832;28;20052;-72
2022/05/11 04:37:57;;;;;;;10.73;7.03;;;10.00;99.90;;;;;;5033401;28;20029;-78
2022/05/11 04:40:23;;;;;;;11.07;7.15;;;10.10;99.90;;;;;;5015886;28;20045;-78
2022/05/11 04:42:49;;;;;;;10.48;7.15;;;10.10;99.90;;;;;;5033335;28;20022;-73
2022/05/11 04:45:16;;;;;;;9.18;7.25;;;10.30;99.90;;;;;;5033432;28;20045;-78
2022/05/11 04:47:42;;;;;;;11.73;6.47;;;10.40;99.90;;;;;;5033364;28;20665;-72
2022/05/11 04:50:08;;;;;;;9.55;6.55;;;10.60;99.90;;;;;;5014341;28;20048;-72
2022/05/11 04:52:34;;;;;;;11.60;6.93;;;10.80;99.90;;;;;;5015339;28;20395;-72
2022/05/11 04:55:00;;;;;;;9.48;6.32;;;10.80;99.90;;;;;;5032788;28;20030;-73
2022/05/11 04:57:25;;;;;;;12.43;7.93;;;11.00;99.90;;;;;;5031813;28;20022;-72
2022/05/11 04:59:51;;;;;;;11.48;7.05;;;11.20;99.90;;;;;;5031790;28;20017;-74
2022/05/11 05:02:23;;;;;;;10.00;7.80;;;11.40;99.90;;;;;;5032638;28;20459;-77
2022/05/11 05:04:50;;;;;;;11.05;7.35;;;11.50;99.90;;;;;;5032769;28;20104;-70
2022/05/11 05:07:16;;;;;;;11.10;8.25;;;11.70;99.90;;;;;;5032891;28;20064;-76
2022/05/11 05:09:41;;;;;;;13.52;7.63;;;11.80;99.90;;;;;;5032923;28;20040;-78
2022/05/11 05:12:08;;;;;;;11.05;7.50;;;12.00;99.90;;;;;;5033081;28;20391;-76
2022/05/11 05:14:34;;;;;;;12.13;7.22;;;12.20;99.90;;;;;;5015087;28;20026;-75
2022/05/11 05:17:05;;;;;;;12.82;8.30;;;12.40;99.90;;;;;;5032896;28;20045;-78
2022/05/11 05:19:31;;;;;;;11.63;7.40;;;12.70;99.90;;;;;;5033369;28;20112;-73
2022/05/11 05:21:58;;;;;;;14.80;8.32;;;12.90;99.90;;;;;;5033486;28;20029;-73
2022/05/11 05:24:24;;;;;;;11.40;8.73;;;13.00;99.90;;;;;;5013419;28;20026;-77
2022/05/11 05:26:50;;;;;;;15.38;7.65;;;13.20;91.60;;;;;;5023848;28;20033;-77
2022/05/11 05:32:00;;;;;;;10.07;7.13;;;13.60;76.80;;;;;;5032064;28;20118;-73
2022/05/11 05:34:25;;;;;;;13.10;7.63;;;13.80;73.10;;;;;;5031154;28;20117;-72
2022/05/11 05:36:51;;;;;;;12.48;7.88;;;13.90;70.80;;;;;;5031111;28;20037;-71
2022/05/11 05:39:17;;;;;;;11.45;7.95;;;14.10;71.20;;;;;;5029103;28;20030;-72
2022/05/11 05:41:42;;;;;;;13.02;7.75;;;14.20;71.60;;;;;;5026297;28;20084;-72
2022/05/11 05:44:08;;;;;;;13.40;8.27;;;14.40;71.40;;;;;;5032543;28;20078;-71
2022/05/11 05:46:34;;;;;;;14.65;7.43;;;14.60;70.50;;;;;;5032595;28;20026;-73
2022/05/11 05:49:00;;;;;;;15.85;8.48;;;14.70;70.30;;;;;;5032026;28;20029;-73
2022/05/11 05:51:27;;;;;;;10.82;7.05;;;14.90;69.70;;;;;;5031205;28;20391;-74
2022/05/11 05:53:53;;;;;;;16.75;7.15;;;15.10;68.90;;;;;;5030711;28;20018;-73
2022/05/11 05:56:19;;;;;;;14.27;7.70;;;15.20;69.30;;;;;;5030751;28;20037;-74
2022/05/11 05:58:45;;;;;;;11.52;8.00;;;15.40;68.00;;;;;;5030669;28;20059;-74
2022/05/11 06:01:11;;;;;;;11.30;7.68;;;15.60;66.80;;;;;;5031286;28;20033;-73
2022/05/11 06:03:38;;;;;;;11.18;6.93;;;15.70;66.90;;;;;;5032330;28;20072;-74
2022/05/11 06:06:06;;;;;;;9.30;6.28;;;16.00;65.70;;;;;;5014194;28;20018;-73
2022/05/11 06:08:32;;;;;;;11.10;6.72;;;16.20;64.40;;;;;;5032800;28;20043;-74
2022/05/11 06:10:57;;;;;;;10.95;6.43;;;16.40;63.70;;;;;;5032328;28;20112;-74
2022/05/11 06:13:23;;;;;;;12.10;6.78;;;16.60;63.80;;;;;;5014754;28;20527;-74
2022/05/11 06:15:51;;;;;;;15.32;7.25;;;16.70;62.50;;;;;;5032760;28;20049;-74
2022/05/11 06:18:17;;;;;;;13.30;7.05;;;16.90;62.00;;;;;;5015287;28;20029;-73
2022/05/11 06:20:42;;;;;;;13.80;6.75;;;16.80;61.30;;;;;;5035890;28;20022;-74
2022/05/11 06:23:08;;;;;;;9.55;6.95;;;16.70;60.20;;;;;;5035985;28;20403;-74
2022/05/11 06:25:36;;;;;;;11.75;6.38;;;16.70;61.50;;;;;;5034773;28;20025;-74
2022/05/11 06:28:02;;;;;;;9.13;6.70;;;16.60;61.30;;;;;;5035768;28;20029;-73
2022/05/11 06:30:29;;;;;;;13.27;6.90;;;16.60;61.50;;;;;;5035808;28;20403;-74
2022/05/11 06:32:55;;;;;;;12.93;6.85;;;16.70;61.90;;;;;;5036051;28;20037;-74
2022/05/11 06:35:21;;;;;;;14.68;6.30;;;16.70;62.20;;;;;;5034869;28;20037;-73
2022/05/11 06:37:50;;;;;;;12.68;7.00;;;17.00;62.00;;;;;;5017718;28;20018;-74
2022/05/11 06:40:16;;;;;;;11.55;6.18;;;17.20;61.50;;;;;;5035563;28;20029;-74
2022/05/11 06:42:42;;;;;;;10.25;5.47;;;17.40;61.10;;;;;;5035492;28;20029;-74
2022/05/11 06:45:09;;;;;;;7.10;5.80;;;17.60;60.50;;;;;;5035501;28;20390;-74
2022/05/11 06:47:35;;;;;;;9.50;5.40;;;17.80;59.70;;;;;;5035556;28;20113;-74
2022/05/11 06:50:00;;;;;;;8.80;5.65;;;18.00;59.00;;;;;;5017842;28;20067;-75
2022/05/11 06:52:26;;;;;;;8.13;5.55;;;18.30;61.10;;;;;;5035483;28;20036;-74
2022/05/11 07:00:33;;;;;;;8.85;5.50;;;18.90;57.50;;;;;;5032554;28;20076;-74
2022/05/11 07:02:59;;;;;;;6.40;5.10;;;19.10;56.60;;;;;;5034137;28;20471;-74
2022/05/11 07:05:25;;;;;;;7.35;4.75;;;19.10;56.00;;;;;;5016321;28;20486;-75
2022/05/11 07:07:52;;;;;;;5.95;4.43;;;19.20;56.10;;;;;;5034712;28;20017;-74
2022/05/11 07:10:18;;;;;;;7.28;4.78;;;19.20;54.80;;;;;;5034962;28;20045;-74
2022/05/11 07:12:46;;;;;;;9.25;5.20;;;19.20;54.70;;;;;;5033919;28;20049;-74
2022/05/11 07:15:12;;;;;;;8.43;5.43;;;19.40;55.90;;;;;;5034586;28;20037;-73
2022/05/11 07:17:42;;;;;;;7.35;5.18;;;19.60;55.10;;;;;;5035177;28;20449;-73
2022/05/11 07:20:21;;;;;;;9.18;4.93;;;19.80;55.90;;;;;;5017153;28;20558;-75
2022/05/11 07:22:47;;;;;;;9.45;5.22;;;19.90;56.00;;;;;;5035103;28;20108;-74
2022/05/11 07:25:16;;;;;;;7.47;5.10;;;20.00;53.50;;;;;;5034160;28;20100;-75
2022/05/11 07:27:44;;;;;;;14.38;5.20;;;20.00;53.80;;;;;;5032719;28;20055;-75
2022/05/11 07:30:12;;;;;;;5.43;4.60;;;19.90;54.00;;;;;;5014954;28;20034;-74
2022/05/11 07:32:38;;;;;;;12.48;5.15;;;20.20;54.20;;;;;;5032611;28;20045;-74
2022/05/11 07:35:04;;;;;;;10.32;5.30;;;20.30;54.30;;;;;;5032529;28;20076;-74
2022/05/11 07:37:30;;;;;;;8.18;4.93;;;20.40;53.50;;;;;;5014718;28;20013;-74
2022/05/11 07:39:56;;;;;;;13.43;5.45;;;20.60;53.80;;;;;;5032910;28;20025;-74
2022/05/11 07:42:26;;;;;;;10.07;5.80;;;20.80;53.90;;;;;;5016879;28;20467;-75
2022/05/11 07:44:52;;;;;;;7.00;5.25;;;20.80;53.10;;;;;;5034583;28;20033;-74
2022/05/11 07:47:19;;;;;;;7.93;4.72;;;20.90;53.30;;;;;;5017014;28;20039;-74
2022/05/11 07:49:45;;;;;;;13.20;5.97;;;21.00;52.60;;;;;;5016648;28;20467;-74
2022/05/11 07:52:10;;;;;;;8.10;5.30;;;21.10;52.20;;;;;;5016626;28;20152;-75
2022/05/11 07:54:36;;;;;;;11.25;5.32;;;21.30;52.10;;;;;;5033572;28;20467;-75
2022/05/11 07:59:52;;;;;;;11.13;5.65;;;21.60;51.70;;;;;;5034614;28;20411;-74
2022/05/11 08:02:18;;;;;;;11.95;5.03;;;21.70;52.50;;;;;;5034277;28;20489;-75
2022/05/11 08:04:44;;;;;;;7.82;5.43;;;21.70;51.50;;;;;;5034086;28;20084;-75
2022/05/11 08:07:15;;;;;;;7.40;5.10;;;21.80;51.10;;;;;;5034135;28;20049;-75
2022/05/11 08:09:41;;;;;;;11.65;5.57;;;21.90;51.60;;;;;;5034280;28;20390;-75
2022/05/11 08:12:07;;;;;;;5.97;4.72;;;22.10;52.00;;;;;;5016354;28;20025;-75
2022/05/11 08:14:33;;;;;;;10.27;5.47;;;22.20;51.30;;;;;;5033735;28;20029;-75
2022/05/11 08:16:59;;;;;;;10.27;5.65;;;22.30;51.60;;;;;;5015995;28;20049;-75
2022/05/11 08:19:26;;;;;;;7.63;4.95;;;22.40;50.70;;;;;;5033979;28;20021;-75
2022/05/11 08:21:53;;;;;;;7.28;5.55;;;22.50;50.40;;;;;;5034080;28;20022;-75
2022/05/11 08:24:19;;;;;;;8.23;5.40;;;22.60;50.00;;;;;;5033552;28;20478;-75
2022/05/11 08:26:51;;;;;;;8.30;5.97;;;22.80;49.80;;;;;;5033818;28;20025;-75
2022/05/11 08:34:54;;;;;;;11.60;4.80;;;22.80;48.70;;;;;;5028300;28;20072;-75
2022/05/11 08:37:20;;;;;;;7.30;4.70;;;22.90;49.00;;;;;;5015763;28;20160;-75
2022/05/11 08:39:48;;;;;;;6.80;5.50;;;23.20;49.30;;;;;;5033629;28;20049;-75
2022/05/11 08:42:14;;;;;;;8.25;5.85;;;23.30;50.30;;;;;;5032396;28;20029;-75
2022/05/11 08:44:48;;;;;;;11.85;6.65;;;23.50;50.10;;;;;;5033625;28;20017;-75
2022/05/11 08:47:22;;;;;;;18.75;5.90;;;23.40;47.80;;;;;;5033542;28;20025;-75
2022/05/11 08:49:56;;;;;;;16.10;5.60;;;23.50;48.90;;;;;;5033609;28;20482;-75
2022/05/11 08:52:29;;;;;;;12.50;5.28;;;23.60;48.30;;;;;;5032190;28;20030;-75
2022/05/11 08:55:12;;;;;;;8.82;5.47;;;23.60;47.60;;;;;;5033604;28;20028;-75
2022/05/11 08:57:38;;;;;;;;;;;23.70;48.20;;;;;;5033701;28;20356;-75
2022/05/11 09:00:11;;;;;;;7.95;5.97;;;23.90;49.80;;;;;;5033533;28;19909;-75
2022/05/11 09:02:56;;;;;;;13.13;6.18;;;23.90;47.20;;;;;;5032198;28;20022;-75
2022/05/11 09:05:28;;;;;;;7.05;5.78;;;24.00;46.70;;;;;;5033285;28;20067;-75
2022/05/11 09:07:55;;;;;;;13.48;6.47;;;24.10;48.70;;;;;;5033413;28;20029;-75
2022/05/11 09:10:32;;;;;;;9.77;5.75;;;24.30;47.00;;;;;;5033614;28;20072;-75
2022/05/11 09:13:04;;;;;;;9.15;6.07;;;24.30;47.50;;;;;;5033265;28;20018;-75
2022/05/11 09:16:03;;;;;;;9.60;5.68;;;24.30;46.90;;;;;;5031956;28;20135;-75
2022/05/11 09:18:31;;;;;;;10.75;5.13;;;24.40;47.70;;;;;;4972368;28;20046;-75
2022/05/11 09:21:00;;;;;;;8.20;4.80;;;24.50;47.00;;;;;;4962409;28;20172;-75
2022/05/11 09:23:36;;;;;;;8.85;4.78;;;24.40;46.30;;;;;;4995765;28;20583;-75
2022/05/11 09:26:04;;;;;;;12.55;4.97;;;24.80;47.20;;;;;;5013585;28;20029;-77
2022/05/11 09:28:47;;;;;;;11.30;5.47;;;24.80;45.10;;;;;;4995734;28;20029;-77
2022/05/11 09:31:24;;;;;;;11.88;4.85;;;24.90;46.20;;;;;;5013210;28;20036;-76
2022/05/11 09:34:00;;;;;;;9.35;5.15;;;24.80;43.90;;;;;;5013185;28;20029;-76
2022/05/11 09:36:51;;;;;;;7.35;4.53;;;24.70;44.50;;;;;;4996429;28;20038;-76
2022/05/11 09:39:17;;;;;;;6.18;4.88;;;25.00;45.00;;;;;;4999305;28;20033;-76
2022/05/11 09:41:49;;;;;;;8.65;4.68;;;25.20;44.50;;;;;;5017140;28;20101;-76
2022/05/11 09:44:23;;;;;;;7.05;4.90;;;24.90;44.40;;;;;;5017126;28;20025;-75
2022/05/11 09:46:50;;;;;;;5.72;5.15;;;25.20;45.40;;;;;;4999518;28;20026;-76
2022/05/11 09:49:15;;;;;;;9.90;4.72;;;25.20;44.30;;;;;;4999174;28;20034;-77
2022/05/11 09:51:45;;;;;;;10.50;4.97;;;25.20;43.90;;;;;;5020992;28;20024;-76
2022/05/11 09:54:28;;;;;;;7.97;5.03;;;25.00;43.30;;;;;;5036911;28;20041;-77
2022/05/11 09:57:26;;;;;;;13.50;5.93;;;25.00;44.50;;;;;;5036564;28;20108;-77
2022/05/11 09:59:56;;;;;;;6.05;4.95;;;24.90;44.50;;;;;;5018744;28;20025;-76
2022/05/11 10:02:28;;;;;;;12.05;5.70;;;25.00;44.00;;;;;;5036442;28;20041;-76
2022/05/11 10:05:10;;;;;;;8.45;5.50;;;25.30;44.40;;;;;;5018733;28;20458;-76
2022/05/11 10:07:56;;;;;;;9.95;5.13;;;25.40;44.10;;;;;;5018167;28;20025;-76
2022/05/11 10:10:31;;;;;;;10.25;5.68;;;25.40;43.40;;;;;;5018557;28;20033;-75
2022/05/11 10:13:12;;;;;;;7.22;4.55;;;25.40;43.80;;;;;;5018302;28;20391;-76
2022/05/11 10:21:50;;;;;;;5.90;5.00;;;25.30;43.60;;;;;;5016508;28;20041;-76
2022/05/11 10:24:34;;;;;;;7.93;5.20;;;25.20;42.60;;;;;;5016191;28;20048;-76
2022/05/11 10:27:40;;;;;;;8.05;5.30;;;25.20;42.40;;;;;;4998745;28;20025;-76
2022/05/11 10:30:28;;;;;;;5.85;4.55;;;25.30;43.70;;;;;;5016239;28;20499;-76
2022/05/11 10:33:03;;;;;;;7.00;5.88;;;25.20;42.20;;;;;;4998607;28;20033;-76
2022/05/11 10:35:45;;;;;;;6.38;5.35;;;25.20;42.50;;;;;;5016081;28;20514;-76
2022/05/11 10:38:14;;;;;;;4.47;4.07;;;25.30;43.10;;;;;;5016035;28;20032;-76
2022/05/11 10:41:17;;;;;;;9.95;5.53;;;25.50;43.00;;;;;;5016049;28;20018;-76
2022/05/11 10:44:27;;;;;;;6.55;4.22;;;25.90;42.70;;;;;;5015946;28;20471;-76
2022/05/11 10:47:08;;;;;;;6.53;5.57;;;26.00;42.10;;;;;;4939307;28;20027;-76
2022/05/11 10:49:53;;;;;;;9.57;5.13;;;26.00;42.50;;;;;;4995609;28;20120;-76
2022/05/11 10:52:24;;;;;;;11.15;5.47;;;25.90;40.80;;;;;;5024988;28;20532;-76
2022/05/11 10:55:09;;;;;;;10.85;4.93;;;25.60;40.40;;;;;;5017684;28;20108;-76
2022/05/11 10:57:53;;;;;;;6.20;4.40;;;25.50;41.50;;;;;;5017697;28;20119;-76
2022/05/11 11:00:24;;;;;;;7.90;4.35;;;25.40;40.50;;;;;;5035362;28;20021;-76
2022/05/11 11:03:15;;;;;;;5.75;4.30;;;25.50;40.30;;;;;;5035423;28;20408;-77
2022/05/11 11:05:40;;;;;;;5.70;4.55;;;25.50;39.90;;;;;;5035295;28;20018;-76
2022/05/11 11:08:30;;;;;;;6.20;4.57;;;25.70;39.90;;;;;;5035266;28;20087;-77
2022/05/11 11:11:14;;;;;;;5.20;4.75;;;25.90;39.80;;;;;;5035344;28;20037;-76
2022/05/11 11:13:42;;;;;;;4.65;4.25;;;25.80;39.70;;;;;;5035243;28;20018;-76
2022/05/11 11:16:12;;;;;;;5.07;4.35;;;25.90;40.30;;;;;;5034680;28;20125;-77
2022/05/11 11:18:41;;;;;;;8.02;4.47;;;25.90;39.30;;;;;;5034732;28;20041;-76
2022/05/11 11:21:10;;;;;;;7.15;4.72;;;26.20;40.30;;;;;;5016525;28;20483;-76
2022/05/11 11:23:45;;;;;;;5.95;4.85;;;26.20;39.60;;;;;;5034428;28;20092;-76
2022/05/11 11:26:32;;;;;;;7.10;4.80;;;26.20;40.30;;;;;;5034271;28;20057;-76
2022/05/11 11:29:01;;;;;;;6.80;4.47;;;26.30;40.70;;;;;;5034041;28;20033;-77
2022/05/11 11:31:28;;;;;;;5.63;4.18;;;26.30;40.30;;;;;;5016529;28;20444;-77
2022/05/11 11:33:56;;;;;;;5.30;4.47;;;26.20;40.00;;;;;;5016290;28;20025;-77
2022/05/11 11:36:26;;;;;;;8.13;5.03;;;26.00;39.30;;;;;;5034431;28;20041;-76
2022/05/11 11:38:53;;;;;;;5.80;5.13;;;25.80;41.40;;;;;;5016265;28;20025;-76
2022/05/11 11:41:20;;;;;;;4.65;4.25;;;25.90;41.10;;;;;;5034123;28;20029;-76
2022/05/11 11:43:54;;;;;;;5.60;4.60;;;26.10;41.70;;;;;;5034183;28;20475;-77
2022/05/11 11:46:47;;;;;;;6.93;4.53;;;26.30;41.30;;;;;;5016284;28;20083;-76
2022/05/11 11:49:18;;;;;;;5.50;4.53;;;26.40;41.00;;;;;;5030583;28;20483;-77
2022/05/11 11:51:50;;;;;;;6.63;5.00;;;26.40;41.00;;;;;;5033955;28;20033;-76
2022/05/11 11:54:39;;;;;;;4.97;4.47;;;26.40;40.30;;;;;;5034057;28;20279;-76
2022/05/11 11:57:25;;;;;;;6.18;4.57;;;26.50;41.10;;;;;;5008968;28;20455;-77
2022/05/11 11:59:59;;;;;;;5.75;4.47;;;26.50;41.30;;;;;;5019457;28;20112;-76
2022/05/11 12:02:28;;;;;;;9.65;5.28;;;26.20;40.40;;;;;;5033566;28;20032;-77
2022/05/11 12:05:02;;;;;;;5.57;5.07;;;26.20;40.30;;;;;;5015905;28;20029;-76
2022/05/11 12:16:06;;;;;;;5.43;4.78;;;26.20;40.70;;;;;;5028105;28;20103;-76
2022/05/11 12:18:35;;;;;;;4.82;4.40;;;26.30;41.40;;;;;;5028526;28;20484;-76
2022/05/11 12:21:04;;;;;;;6.35;4.50;;;26.40;39.80;;;;;;5024119;28;20364;-77
2022/05/11 12:23:36;;;;;;;7.20;5.03;;;26.60;40.40;;;;;;5019810;28;20034;-77
2022/05/11 12:26:09;;;;;;;9.70;5.00;;;26.60;41.40;;;;;;5019930;28;20022;-77
2022/05/11 12:28:40;;;;;;;6.13;4.72;;;26.40;41.50;;;;;;5016373;28;20148;-76
2022/05/11 12:31:07;;;;;;;9.98;5.22;;;26.40;41.40;;;;;;5028314;28;20025;-76
2022/05/11 12:33:39;;;;;;;8.82;4.57;;;26.40;41.80;;;;;;5030868;28;20026;-76
2022/05/11 12:36:05;;;;;;;9.40;5.07;;;26.40;42.10;;;;;;5032409;28;20037;-76
2022/05/11 12:38:36;;;;;;;8.50;4.85;;;26.30;41.40;;;;;;5028541;28;20424;-76
2022/05/11 12:41:10;;;;;;;5.67;5.17;;;26.10;41.40;;;;;;5032330;28;20538;-77
2022/05/11 12:43:39;;;;;;;7.10;5.03;;;26.10;41.90;;;;;;5030264;28;20128;-76
2022/05/11 12:46:12;;;;;;;7.60;4.82;;;26.10;42.10;;;;;;5032570;28;20022;-76
2022/05/11 12:48:57;;;;;;;5.28;4.78;;;26.10;41.20;;;;;;5031959;28;20029;-77
2022/05/11 12:51:38;;;;;;;6.70;4.55;;;26.20;40.20;;;;;;5031920;28;20025;-76
2022/05/11 12:54:06;;;;;;;5.15;4.13;;;26.20;40.10;;;;;;5024399;28;20036;-77
2022/05/11 12:56:38;;;;;;;4.85;4.45;;;26.40;41.20;;;;;;5029961;28;20076;-77
2022/05/11 12:59:23;;;;;;;5.00;4.32;;;26.50;40.60;;;;;;5027060;28;20496;-77
2022/05/11 13:01:49;;;;;;;6.78;4.95;;;26.50;40.10;;;;;;5030481;28;20025;-76
2022/05/11 13:04:24;;;;;;;5.30;4.65;;;26.40;39.80;;;;;;5031837;28;20040;-76
2022/05/11 13:06:57;;;;;;;6.65;4.70;;;26.30;39.50;;;;;;5031716;28;20075;-76
2022/05/11 13:09:41;;;;;;;4.90;4.47;;;26.40;39.00;;;;;;5029980;28;20038;-76
2022/05/11 13:12:10;;;;;;;7.68;4.60;;;26.30;39.30;;;;;;5035040;28;20029;-76
2022/05/11 13:14:43;;;;;;;9.15;4.00;;;26.30;40.00;;;;;;5035556;28;20111;-77
2022/05/11 13:17:39;;;;;;;7.18;4.15;;;26.30;40.30;;;;;;5054021;28;20049;-76
2022/05/11 13:20:20;;;;;;;6.97;4.28;;;26.20;39.60;;;;;;5055974;28;20505;-76
2022/05/11 13:22:54;;;;;;;14.25;5.20;;;26.30;40.00;;;;;;5030265;28;20025;-76
2022/05/11 13:25:41;;;;;;;6.80;4.40;;;26.40;39.60;;;;;;5037753;28;20029;-77
2022/05/11 13:28:38;;;;;;;6.05;4.32;;;26.40;39.20;;;;;;5018950;28;20522;-77
2022/05/11 13:31:28;;;;;;;4.40;3.88;;;26.50;40.00;;;;;;5019570;28;20034;-77
2022/05/11 13:33:53;;;;;;;5.80;4.45;;;26.40;39.30;;;;;;5008938;28;20041;-77
2022/05/11 13:36:23;;;;;;;4.85;4.07;;;26.40;39.30;;;;;;5029709;28;20044;-76
2022/05/11 13:39:09;;;;;;;7.13;4.30;;;26.60;39.30;;;;;;5035976;28;20040;-77
2022/05/11 13:41:41;;;;;;;7.35;4.30;;;26.70;39.90;;;;;;5035366;28;20033;-77